createdAt,value
2022-10-02T00:01:17.183Z,99704.06
2022-10-02T00:05:25.379Z,99709.97
2022-10-02T00:09:37.805Z,99721.09
2022-10-02T00:13:43.570Z,99725.69
2022-10-02T00:17:47.387Z,99718.78
2022-10-02T00:22:04.098Z,99726.81
2022-10-02T00:26:26.961Z,99737.63
2022-10-02T00:30:28.693Z,99743.03
2022-10-02T00:34:41.169Z,99740.59
2022-10-02T00:39:31.845Z,99729.75
2022-10-02T00:44:15.310Z,99747.88
2022-10-02T00:48:40.833Z,99754.28
2022-10-02T00:53:02.962Z,99748.72
2022-10-02T00:57:31.194Z,99762.34
2022-10-02T01:01:59.778Z,99769.03
2022-10-02T01:06:01.925Z,99750.53
2022-10-02T01:10:04.065Z,99754.31
2022-10-02T01:14:05.897Z,99767.19
2022-10-02T01:18:09.256Z,99775.41
2022-10-02T01:22:30.977Z,99785.53
2022-10-02T01:26:33.047Z,99791.13
2022-10-02T01:30:35.933Z,99786.50
2022-10-02T01:34:37.746Z,99798.13
2022-10-02T01:38:40.102Z,99798.63
2022-10-02T01:42:41.894Z,99804.19
2022-10-02T01:47:01.313Z,99803.38
2022-10-02T01:51:57.867Z,99802.88
2022-10-02T01:56:22.603Z,99809.84
2022-10-02T02:00:25.514Z,99811.78
2022-10-02T02:04:50.024Z,99811.91
2022-10-02T02:09:12.067Z,99824.41
2022-10-02T02:14:12.050Z,99821.34
2022-10-02T02:18:47.032Z,99819.66
2022-10-02T02:22:51.865Z,99828.31
2022-10-02T02:26:55.850Z,99829.25
2022-10-02T02:30:57.671Z,99825.91
2022-10-02T02:35:06.599Z,99829.56
2022-10-02T02:39:12.147Z,99834.16
2022-10-02T02:43:29.556Z,99830.88
2022-10-02T02:48:02.627Z,99838.38
2022-10-02T02:52:06.923Z,99829.72
2022-10-02T02:56:10.397Z,99819.88
2022-10-02T03:00:14.803Z,99822.88
2022-10-02T03:04:16.592Z,99832.38
2022-10-02T03:08:31.775Z,99829.91
2022-10-02T03:13:17.079Z,99835.06
2022-10-02T03:17:53.900Z,99849.03
2022-10-02T03:22:12.982Z,99845.47
2022-10-02T03:26:20.789Z,99842.19
2022-10-02T03:30:24.296Z,99838.63
2022-10-02T03:34:26.272Z,99829.25
2022-10-02T03:38:28.145Z,99840.75
2022-10-02T03:42:34.443Z,99831.22
2022-10-02T03:46:36.563Z,99827.19
2022-10-02T03:50:38.646Z,99825.03
2022-10-02T03:54:40.479Z,99837.19
2022-10-02T03:58:45.968Z,99828.63
2022-10-02T04:02:58.694Z,99838.75
2022-10-02T04:07:05.801Z,99845.13
2022-10-02T04:11:16.937Z,99845.66
2022-10-02T04:15:51.120Z,99848.66
2022-10-02T04:20:28.769Z,99846.75
2022-10-02T04:24:34.308Z,99857.63
2022-10-02T04:28:40.276Z,99845.44
2022-10-02T04:32:42.191Z,99850.25
2022-10-02T04:37:42.168Z,99847.00
2022-10-02T04:42:06.872Z,99855.09
2022-10-02T04:46:28.597Z,99855.56
2022-10-02T04:50:54.156Z,99860.75
2022-10-02T04:55:28.046Z,99869.94
2022-10-02T04:59:55.212Z,99862.69
2022-10-02T05:04:25.472Z,99869.78
2022-10-02T05:09:01.621Z,99856.03
2022-10-02T05:13:27.317Z,99866.44
2022-10-02T05:18:00.042Z,99869.00
2022-10-02T05:22:28.611Z,99868.47
2022-10-02T05:26:37.921Z,99860.75
2022-10-02T05:31:05.655Z,99851.31
2022-10-02T05:35:26.116Z,99860.34
2022-10-02T05:39:32.119Z,99860.78
2022-10-02T05:43:49.790Z,99864.75
2022-10-02T05:47:51.694Z,99858.56
2022-10-02T05:52:04.861Z,99868.56
2022-10-02T05:56:37.544Z,99866.13
2022-10-02T06:00:46.812Z,99853.00
2022-10-02T06:05:40.232Z,99857.59
2022-10-02T06:10:47.956Z,99849.41
2022-10-02T06:15:24.880Z,99851.00
2022-10-02T06:20:03.585Z,99853.00
2022-10-02T06:24:11.884Z,99850.19
2022-10-02T06:28:38.443Z,99856.19
2022-10-02T06:33:01.686Z,99853.72
2022-10-02T06:37:10.523Z,99855.44
2022-10-02T06:41:47.299Z,99846.97
2022-10-02T06:46:37.365Z,99846.84
2022-10-02T06:50:55.799Z,99836.94
2022-10-02T06:55:23.575Z,99824.97
2022-10-02T06:59:35.640Z,99831.53
2022-10-02T07:04:04.195Z,99825.97
2022-10-02T07:08:41.560Z,99822.28
2022-10-02T07:13:03.272Z,99812.84
2022-10-02T07:17:11.528Z,99821.75
2022-10-02T07:21:34.993Z,99825.53
2022-10-02T07:26:02.267Z,99831.97
2022-10-02T07:30:12.746Z,99832.28
2022-10-02T07:34:59.287Z,99837.66
2022-10-02T07:39:31.508Z,99844.34
2022-10-02T07:43:53.273Z,99840.13
2022-10-02T07:48:38.340Z,99837.69
2022-10-02T07:53:01.375Z,99836.25
2022-10-02T07:57:25.982Z,99808.16
2022-10-02T08:01:32.524Z,99816.72
2022-10-02T08:05:44.773Z,99822.59
2022-10-02T08:09:49.728Z,99809.53
2022-10-02T08:14:01.029Z,99816.50
2022-10-02T08:18:47.666Z,99824.88
2022-10-02T08:22:55.977Z,99825.06
2022-10-02T08:27:34.116Z,99814.47
2022-10-02T08:31:36.657Z,99818.78
2022-10-02T08:36:16.664Z,99810.00
2022-10-02T08:41:12.236Z,99814.22
2022-10-02T08:45:41.120Z,99805.91
2022-10-02T08:50:37.036Z,99817.28
2022-10-02T08:55:07.930Z,99805.50
2022-10-02T08:59:42.212Z,99802.03
2022-10-02T09:04:47.976Z,99814.63
2022-10-02T09:09:23.148Z,99803.69
2022-10-02T09:14:45.042Z,99817.53
2022-10-02T09:19:20.538Z,99813.47
2022-10-02T09:23:56.926Z,99820.19
2022-10-02T09:28:21.707Z,99818.34
2022-10-02T09:32:58.013Z,99810.00
2022-10-02T09:37:54.256Z,99816.06
2022-10-02T09:42:19.608Z,99810.31
2022-10-02T09:47:04.711Z,99798.16
2022-10-02T09:51:55.853Z,99793.88
2022-10-02T09:56:56.716Z,99788.78
2022-10-02T10:01:13.200Z,99773.72
2022-10-02T10:05:53.527Z,99773.22
2022-10-02T10:10:32.796Z,99773.75
2022-10-02T10:15:07.368Z,99763.31
2022-10-02T10:19:53.179Z,99765.59
2022-10-02T10:24:47.028Z,99773.56
2022-10-02T10:29:32.432Z,99767.66
2022-10-02T10:34:28.781Z,99776.13
2022-10-02T10:38:54.516Z,99766.00
2022-10-02T10:43:20.613Z,99767.00
2022-10-02T10:47:38.009Z,99766.81
2022-10-02T10:51:48.132Z,99768.81
2022-10-02T10:56:33.685Z,99763.72
2022-10-02T11:01:55.105Z,99752.09
2022-10-02T11:06:46.292Z,99766.97
2022-10-02T11:11:12.410Z,99751.91
2022-10-02T11:16:36.423Z,99753.97
2022-10-02T11:21:41.869Z,99763.53
2022-10-02T11:26:15.806Z,99756.00
2022-10-02T11:30:38.244Z,99751.09
2022-10-02T11:35:17.311Z,99759.03
2022-10-02T11:40:18.438Z,99758.66
2022-10-02T11:44:34.674Z,99749.66
2022-10-02T11:49:07.567Z,99753.75
2022-10-02T11:53:34.650Z,99767.16
2022-10-02T11:58:05.059Z,99749.16
2022-10-02T12:02:54.011Z,99760.56
2022-10-02T12:07:24.065Z,99762.19
2022-10-02T12:12:12.839Z,99753.31
2022-10-02T12:22:44.551Z,99749.84
2022-10-02T12:27:13.980Z,99759.22
2022-10-02T12:31:32.306Z,99752.31
2022-10-02T12:35:36.555Z,99748.06
2022-10-02T12:40:10.306Z,99753.22
2022-10-02T12:44:59.950Z,99735.50
2022-10-02T12:49:30.463Z,99735.84
2022-10-02T12:53:57.395Z,99750.66
2022-10-02T12:58:25.489Z,99740.50
2022-10-02T13:03:00.476Z,99734.44
2022-10-02T13:07:35.399Z,99724.50
2022-10-02T13:12:20.671Z,99711.66
2022-10-02T13:16:38.221Z,99714.47
2022-10-02T13:20:58.585Z,99724.63
2022-10-02T13:25:47.462Z,99721.59
2022-10-02T13:30:23.058Z,99704.69
2022-10-02T13:34:40.973Z,99726.28
2022-10-02T13:38:54.517Z,99720.59
2022-10-02T13:43:37.810Z,99721.66
2022-10-02T13:47:56.624Z,99727.25
2022-10-02T13:52:19.676Z,99723.47
2022-10-02T13:56:59.685Z,99711.31
2022-10-02T14:01:40.503Z,99703.06
2022-10-02T14:06:56.309Z,99694.00
2022-10-02T14:17:29.208Z,99700.97
2022-10-02T14:21:53.515Z,99710.06
2022-10-02T14:26:43.814Z,99702.75
2022-10-02T14:42:18.637Z,99730.78
2022-10-02T14:46:55.685Z,99728.88
2022-10-02T14:51:29.150Z,99730.75
2022-10-02T14:57:04.202Z,99747.06
2022-10-02T15:01:23.521Z,99730.50
2022-10-02T15:06:03.621Z,99738.72
2022-10-02T15:10:22.544Z,99750.88
2022-10-02T15:14:36.635Z,99751.94
2022-10-02T15:18:49.693Z,99739.72
2022-10-02T15:23:05.587Z,99744.91
2022-10-02T15:49:07.045Z,99771.00
2022-10-02T16:04:05.212Z,99809.84
2022-10-02T16:08:34.750Z,99805.50
2022-10-02T16:13:31.102Z,99793.69
2022-10-02T16:18:19.010Z,99804.22
2022-10-02T16:22:42.390Z,99799.31
2022-10-02T16:28:01.218Z,99808.56
2022-10-02T16:32:37.543Z,99802.72
2022-10-02T17:53:57.906Z,99950.00
2022-10-02T17:58:55.832Z,99956.56
2022-10-02T18:08:30.560Z,99964.50
2022-10-02T18:13:50.328Z,99984.78
2022-10-02T18:40:16.058Z,100013.19
2022-10-02T18:45:02.177Z,100035.34
2022-10-02T18:49:49.338Z,100030.22
2022-10-02T18:54:46.878Z,100036.13
2022-10-02T18:59:09.273Z,100047.13
2022-10-02T19:08:30.490Z,100068.22
2022-10-02T19:12:37.881Z,100055.13
2022-10-02T19:17:04.418Z,100072.53
2022-10-02T19:21:21.090Z,100074.63
2022-10-02T19:25:28.423Z,100079.25
2022-10-02T19:29:55.539Z,100084.47
2022-10-02T19:34:21.860Z,100082.47
2022-10-02T19:38:51.262Z,100079.19
2022-10-02T19:43:29.822Z,100085.84
2022-10-02T19:48:30.484Z,100090.84
2022-10-02T19:52:58.971Z,100100.75
2022-10-02T19:57:28.825Z,100091.31
2022-10-02T20:02:15.226Z,100080.44
2022-10-02T20:06:21.256Z,100104.66
2022-10-02T20:10:46.180Z,100103.19
2022-10-02T20:15:01.059Z,100092.28
2022-10-02T20:19:09.279Z,100112.97
2022-10-02T20:23:28.567Z,100100.88
2022-10-02T20:28:04.565Z,100117.09
2022-10-02T20:32:49.341Z,100111.50
2022-10-02T20:37:12.067Z,100127.94
2022-10-02T20:41:30.655Z,100127.69
2022-10-02T20:46:04.015Z,100144.63
2022-10-02T20:50:36.751Z,100147.25
2022-10-02T20:55:31.334Z,100159.16
2022-10-02T21:00:12.724Z,100176.44
2022-10-02T21:05:01.548Z,100182.00
2022-10-02T21:09:35.227Z,100195.06
2022-10-02T21:13:53.107Z,100185.09
2022-10-02T21:18:37.399Z,100193.56
2022-10-02T21:23:26.019Z,100196.50
2022-10-02T21:27:53.927Z,100221.59
2022-10-02T21:32:21.760Z,100216.75
2022-10-02T21:36:36.302Z,100216.84
2022-10-02T21:41:16.010Z,100217.22
2022-10-02T21:45:57.449Z,100216.19
2022-10-02T21:50:12.187Z,100223.44
2022-10-02T21:54:56.201Z,100220.31
2022-10-02T22:00:02.859Z,100219.63
2022-10-02T22:04:19.281Z,100223.81
2022-10-02T22:09:10.482Z,100233.34
2022-10-02T22:13:25.448Z,100236.31
2022-10-02T22:17:56.165Z,100240.28
2022-10-02T22:22:13.362Z,100240.16
2022-10-02T22:26:56.072Z,100246.16
2022-10-02T22:30:57.914Z,100246.06
2022-10-02T22:35:23.491Z,100241.41
2022-10-02T22:39:25.277Z,100251.56
2022-10-02T22:44:01.519Z,100248.94
2022-10-02T22:48:09.920Z,100228.78
2022-10-02T22:52:27.005Z,100247.59
2022-10-02T22:56:48.561Z,100259.13
2022-10-02T23:01:13.887Z,100261.66
2022-10-02T23:05:33.455Z,100253.09
2022-10-02T23:09:37.590Z,100265.22
2022-10-02T23:14:27.478Z,100262.63
2022-10-02T23:18:54.410Z,100268.72
2022-10-02T23:23:28.397Z,100270.28
2022-10-02T23:27:54.663Z,100279.81
2022-10-02T23:32:20.218Z,100280.13
2022-10-02T23:36:33.131Z,100275.19
2022-10-02T23:41:35.313Z,100289.34
2022-10-02T23:45:41.777Z,100282.91
2022-10-02T23:49:56.390Z,100293.78
2022-10-02T23:54:15.129Z,100290.59
2022-10-02T23:58:57.955Z,100294.47
